Upstream stations:
Downstream station:
SHEF ID: IOLK1 NEOSHO RIVER NEAR IOLA
STATION TYPE:
Regulating: Stage = 15.00, Flow = 18228
PRECIP STAGE RIV-FLOW BAT-LOAD
in ft cfs volt
Ccp-Rev Ccp-Rev Ccp-Rev Ccp-Rev
(US/Central)
04/07 00:00 0.00 9.82 7516 12.59
04/07 01:00 0.00 9.80 7430 12.55
04/07 02:00 0.00 9.84 7602 12.53
04/07 03:00 0.00 9.80 7430 12.50
04/07 04:00 0.00 9.84 7602 12.48
04/07 05:00 0.00 9.85 7645 12.44
04/07 06:00 0.00 9.82 7516 12.41
04/07 07:00 0.00 9.82 7516 12.38
04/07 08:00 0.00 9.81 7473 12.40
04/07 09:00 0.00 9.81 7473 13.72
04/07 10:00 0.00 9.83 7559 13.65
04/07 11:00 0.00 9.82 7516 13.65
04/07 12:00 0.00 9.83 7559 13.44
04/07 13:00 0.00 9.82 7516 13.32
04/07 14:00 0.00 9.80 7430 13.23
04/07 15:00 0.00 9.86 7689 13.22
04/07 16:00 0.00 9.81 7473 13.11
04/07 17:00 0.00 9.80 7430 13.12
04/07 18:00 0.00 9.79 7387 13.11
04/07 19:00 0.00 9.79 7387 13.09
04/07 20:00 0.00 9.82 7516 12.79
04/07 21:00 0.00 9.78 7345 12.67
04/07 22:00 0.00 9.80 7430 12.63
04/07 23:00 0.00 9.74 7175 12.60